createdAt,value
2019-02-21T00:02:03.382Z,73.95
2019-02-21T00:04:31.879Z,75.22
2019-02-21T00:07:00.407Z,73.60
2019-02-21T00:09:29.077Z,73.75
2019-02-21T00:11:57.583Z,72.47
2019-02-21T00:14:26.844Z,75.97
2019-02-21T00:16:55.358Z,72.92
2019-02-21T00:19:23.869Z,74.87
2019-02-21T00:21:52.395Z,71.12
2019-02-21T00:24:20.906Z,74.20
2019-02-21T00:26:49.459Z,73.85
2019-02-21T00:29:17.987Z,70.30
2019-02-21T00:31:46.493Z,75.08
2019-02-21T00:34:15.020Z,76.07
2019-02-21T00:36:43.519Z,73.92
2019-02-21T00:39:12.037Z,72.12
2019-02-21T00:41:40.645Z,74.82
2019-02-21T00:44:09.576Z,71.95
2019-02-21T00:46:38.070Z,74.50
2019-02-21T00:49:06.572Z,74.90
2019-02-21T00:51:35.104Z,71.70
2019-02-21T00:54:03.690Z,72.40
2019-02-21T00:56:32.225Z,71.80
2019-02-21T00:59:00.834Z,71.77
2019-02-21T01:01:29.386Z,69.45
2019-02-21T01:03:57.936Z,71.33
2019-02-21T01:06:26.498Z,71.90
2019-02-21T01:08:55.011Z,70.62
2019-02-21T01:11:23.516Z,68.47
2019-02-21T01:13:52.051Z,70.92
2019-02-21T01:16:20.546Z,68.00
2019-02-21T01:18:49.092Z,69.00
2019-02-21T01:21:17.604Z,69.17
2019-02-21T01:23:46.145Z,65.60
2019-02-21T01:26:14.660Z,69.72
2019-02-21T01:28:43.391Z,69.40
2019-02-21T01:31:11.924Z,68.80
2019-02-21T01:33:40.451Z,72.22
2019-02-21T01:36:09.029Z,68.52
2019-02-21T01:38:37.532Z,70.32
2019-02-21T01:41:06.044Z,66.25
2019-02-21T01:43:34.565Z,69.87
2019-02-21T01:46:03.099Z,70.97
2019-02-21T01:48:31.623Z,68.28
2019-02-21T01:51:00.140Z,69.12
2019-02-21T01:53:28.698Z,65.17
2019-02-21T01:55:57.227Z,69.97
2019-02-21T01:58:25.718Z,64.35
2019-02-21T02:00:54.539Z,68.55
2019-02-21T02:03:23.046Z,67.95
2019-02-21T02:05:51.610Z,69.03
2019-02-21T02:08:20.129Z,65.08
2019-02-21T02:10:48.623Z,72.25
2019-02-21T02:13:24.664Z,71.35
2019-02-21T02:15:47.311Z,67.00
2019-02-21T02:18:15.844Z,72.55
2019-02-21T02:20:44.399Z,68.78
2019-02-21T02:23:13.064Z,61.25
2019-02-21T02:25:41.574Z,70.40
2019-02-21T02:28:10.091Z,66.70
2019-02-21T02:30:38.606Z,68.78
2019-02-21T02:33:07.197Z,68.57
2019-02-21T02:35:35.727Z,69.07
2019-02-21T02:38:04.247Z,66.75
2019-02-21T02:40:32.919Z,66.22
2019-02-21T02:43:01.413Z,67.92
2019-02-21T02:45:29.928Z,66.57
2019-02-21T02:47:58.468Z,66.47
2019-02-21T02:50:27.036Z,65.28
2019-02-21T02:52:55.590Z,66.17
2019-02-21T02:55:24.086Z,66.28
2019-02-21T02:57:52.656Z,63.65
2019-02-21T03:00:21.237Z,65.10
2019-02-21T03:02:49.751Z,64.67
2019-02-21T03:05:18.281Z,67.15
2019-02-21T03:07:46.789Z,65.47
2019-02-21T03:10:15.355Z,67.27
2019-02-21T03:12:43.857Z,66.42
2019-02-21T03:15:12.416Z,67.40
2019-02-21T03:17:40.955Z,68.07
2019-02-21T03:20:10.153Z,68.72
2019-02-21T03:22:38.680Z,68.75
2019-02-21T03:25:07.546Z,67.70
2019-02-21T03:27:36.128Z,69.50
2019-02-21T03:30:06.010Z,67.65
2019-02-21T03:32:34.586Z,67.60
2019-02-21T03:35:03.121Z,68.12
2019-02-21T03:37:31.621Z,67.42
2019-02-21T03:40:00.342Z,65.32
2019-02-21T03:42:28.864Z,66.10
2019-02-21T03:44:57.429Z,65.42
2019-02-21T03:47:25.947Z,61.95
2019-02-21T03:49:54.462Z,65.45
2019-02-21T03:52:22.997Z,65.10
2019-02-21T03:54:51.515Z,64.85
2019-02-21T03:57:20.064Z,64.95
2019-02-21T03:59:48.573Z,66.33
2019-02-21T04:02:17.092Z,60.98
2019-02-21T04:04:45.605Z,57.75
2019-02-21T04:07:14.138Z,65.72
2019-02-21T04:09:42.657Z,64.10
2019-02-21T04:12:11.166Z,61.70
2019-02-21T04:14:41.468Z,63.00
2019-02-21T04:17:10.008Z,64.97
2019-02-21T04:19:38.520Z,64.97
2019-02-21T04:22:07.053Z,64.17
2019-02-21T04:24:35.578Z,64.20
2019-02-21T04:27:04.167Z,65.10
2019-02-21T04:29:33.754Z,63.23
2019-02-21T04:32:02.322Z,64.30
2019-02-21T04:34:30.889Z,59.42
2019-02-21T04:36:59.399Z,63.87
2019-02-21T04:39:27.910Z,63.30
2019-02-21T04:41:56.432Z,62.62
2019-02-21T04:44:24.995Z,62.75
2019-02-21T04:46:53.476Z,58.00
2019-02-21T04:49:22.038Z,64.20
2019-02-21T04:51:50.550Z,65.20
2019-02-21T04:54:19.180Z,64.75
2019-02-21T04:56:47.694Z,66.72
2019-02-21T04:59:16.215Z,63.40
2019-02-21T05:01:44.758Z,65.22
2019-02-21T05:04:13.267Z,65.20
2019-02-21T05:06:41.833Z,62.90
2019-02-21T05:09:10.431Z,63.80
2019-02-21T05:11:38.928Z,66.22
2019-02-21T05:14:07.444Z,65.32
2019-02-21T05:16:35.962Z,64.70
2019-02-21T05:19:04.526Z,68.50
2019-02-21T05:21:33.016Z,64.20
2019-02-21T05:24:01.540Z,65.70
2019-02-21T05:26:34.547Z,63.52
2019-02-21T05:29:04.693Z,64.77
2019-02-21T05:31:53.118Z,62.58
2019-02-21T05:34:29.212Z,65.75
2019-02-21T05:37:01.959Z,62.30
2019-02-21T05:39:38.212Z,62.90
2019-02-21T05:42:24.906Z,64.82
2019-02-21T05:45:11.014Z,60.17
2019-02-21T05:47:41.685Z,63.68
2019-02-21T05:50:17.805Z,63.25
2019-02-21T05:52:47.978Z,61.45
2019-02-21T05:55:20.883Z,64.50
2019-02-21T05:57:51.038Z,63.63
2019-02-21T06:00:24.240Z,61.63
2019-02-21T06:03:10.482Z,60.23
2019-02-21T06:05:46.480Z,59.45
2019-02-21T06:08:16.638Z,63.42
2019-02-21T06:10:52.731Z,66.37
2019-02-21T06:13:31.853Z,61.85
2019-02-21T06:16:04.772Z,64.50
2019-02-21T06:18:51.619Z,62.73
2019-02-21T06:21:21.816Z,65.83
2019-02-21T06:23:51.969Z,66.70
2019-02-21T06:26:22.178Z,67.97
2019-02-21T06:29:01.127Z,70.10
2019-02-21T06:31:29.641Z,71.85
2019-02-21T06:33:58.161Z,74.67
2019-02-21T06:36:26.669Z,74.15
2019-02-21T06:38:55.247Z,68.55
2019-02-21T06:41:23.830Z,75.92
2019-02-21T06:43:52.855Z,74.62
2019-02-21T06:46:21.581Z,82.22
2019-02-21T06:48:51.625Z,83.58
2019-02-21T06:51:20.991Z,85.40
2019-02-21T06:53:53.014Z,87.95
2019-02-21T06:56:19.786Z,85.62
2019-02-21T06:58:48.294Z,78.87
2019-02-21T07:01:26.741Z,83.80
2019-02-21T07:03:47.043Z,79.17
2019-02-21T07:06:15.575Z,85.32
2019-02-21T07:08:44.107Z,84.95
2019-02-21T07:11:12.621Z,82.20
2019-02-21T07:13:41.199Z,76.33
2019-02-21T07:16:09.790Z,77.45
2019-02-21T07:18:40.729Z,80.42
2019-02-21T07:21:08.516Z,81.63
2019-02-21T07:23:43.477Z,82.62
2019-02-21T07:26:07.267Z,79.45
2019-02-21T07:28:35.769Z,76.12
2019-02-21T07:31:04.353Z,75.30
2019-02-21T07:33:52.351Z,76.10
2019-02-21T07:36:20.901Z,77.08
2019-02-21T07:38:49.561Z,76.33
2019-02-21T07:41:18.835Z,72.42
2019-02-21T07:43:47.548Z,72.10
2019-02-21T07:46:16.055Z,74.53
2019-02-21T07:48:45.562Z,73.72
2019-02-21T07:51:14.242Z,74.45
2019-02-21T07:53:42.801Z,76.47
2019-02-21T07:56:11.306Z,71.28
2019-02-21T07:58:39.919Z,67.50
2019-02-21T08:01:08.444Z,71.53
2019-02-21T08:03:44.262Z,72.87
2019-02-21T08:06:07.135Z,68.15
2019-02-21T08:08:35.760Z,73.05
2019-02-21T08:11:06.860Z,77.67
2019-02-21T08:13:34.444Z,76.42
2019-02-21T08:16:02.964Z,75.75
2019-02-21T08:18:31.542Z,75.37
2019-02-21T08:21:00.082Z,75.78
2019-02-21T08:23:32.292Z,74.37
2019-02-21T08:25:59.923Z,75.25
2019-02-21T08:28:28.442Z,75.70
2019-02-21T08:30:58.102Z,77.95
2019-02-21T08:33:31.603Z,78.80
2019-02-21T08:36:00.178Z,78.80
2019-02-21T08:38:28.716Z,79.82
2019-02-21T08:40:57.352Z,82.85
2019-02-21T08:43:25.883Z,81.42
2019-02-21T08:45:56.785Z,79.58
2019-02-21T08:48:24.638Z,82.20
2019-02-21T08:50:53.204Z,77.95
2019-02-21T08:53:21.709Z,81.10
2019-02-21T08:55:50.224Z,79.60
2019-02-21T08:58:18.733Z,78.83
2019-02-21T09:00:47.297Z,85.87
2019-02-21T09:03:18.048Z,81.30
2019-02-21T09:05:46.039Z,78.57
2019-02-21T09:08:16.631Z,79.20
2019-02-21T09:10:44.749Z,78.85
2019-02-21T09:13:13.288Z,77.87
2019-02-21T09:15:41.860Z,78.47
2019-02-21T09:18:11.544Z,74.12
2019-02-21T09:20:40.035Z,76.20
2019-02-21T09:23:08.544Z,75.80
2019-02-21T09:25:37.098Z,73.90
2019-02-21T09:28:05.673Z,77.35
2019-02-21T09:30:34.232Z,75.45
2019-02-21T09:33:02.747Z,72.35
2019-02-21T09:35:31.339Z,76.30
2019-02-21T09:37:59.835Z,75.37
2019-02-21T09:40:28.607Z,75.50
2019-02-21T09:42:57.550Z,72.53
2019-02-21T09:45:26.148Z,67.67
2019-02-21T09:47:54.741Z,69.50
2019-02-21T09:50:23.246Z,64.87
2019-02-21T09:52:51.812Z,67.15
2019-02-21T09:55:20.318Z,70.72
2019-02-21T09:57:48.829Z,73.22
2019-02-21T10:00:20.031Z,73.35
2019-02-21T10:02:48.594Z,71.97
2019-02-21T10:05:17.211Z,74.12
2019-02-21T10:07:45.729Z,78.55
2019-02-21T10:10:18.624Z,78.45
2019-02-21T10:12:47.233Z,79.97
2019-02-21T10:15:16.523Z,79.47
2019-02-21T10:17:45.079Z,79.67
2019-02-21T10:20:18.826Z,79.95
2019-02-21T10:22:47.360Z,81.63
2019-02-21T10:25:18.677Z,80.47
2019-02-21T10:27:47.631Z,75.95
2019-02-21T10:30:21.520Z,75.83
2019-02-21T10:32:50.390Z,78.60
2019-02-21T10:35:19.060Z,77.35
2019-02-21T10:37:47.547Z,72.60
2019-02-21T10:40:16.642Z,75.17
2019-02-21T10:42:45.242Z,74.90
2019-02-21T10:45:15.953Z,76.77
2019-02-21T10:47:44.477Z,77.10
2019-02-21T10:50:15.396Z,95.07
2019-02-21T10:52:43.954Z,79.03
2019-02-21T10:55:12.464Z,74.58
2019-02-21T10:57:41.087Z,75.72
2019-02-21T11:00:15.719Z,76.53
2019-02-21T11:02:44.517Z,77.67
2019-02-21T11:05:13.153Z,74.05
2019-02-21T11:07:41.730Z,74.55
2019-02-21T11:10:12.518Z,77.25
2019-02-21T11:12:41.032Z,75.97
2019-02-21T11:15:15.804Z,73.40
2019-02-21T11:17:44.337Z,74.58
2019-02-21T11:20:15.666Z,76.55
2019-02-21T11:22:44.188Z,76.30
2019-02-21T11:25:12.804Z,75.92
2019-02-21T11:27:41.349Z,76.22
2019-02-21T11:30:19.931Z,77.60
2019-02-21T11:32:48.487Z,78.70
2019-02-21T11:35:17.013Z,78.30
2019-02-21T11:37:47.153Z,80.12
2019-02-21T11:40:16.678Z,81.05
2019-02-21T11:42:45.819Z,82.33
2019-02-21T11:45:16.897Z,80.57
2019-02-21T11:47:45.410Z,80.93
2019-02-21T11:50:18.154Z,80.38
2019-02-21T11:52:47.129Z,77.55
2019-02-21T11:55:23.413Z,83.00
2019-02-21T11:57:51.979Z,81.72
2019-02-21T12:00:27.544Z,82.25
2019-02-21T12:02:56.181Z,83.58
2019-02-21T12:05:32.280Z,80.67
2019-02-21T12:07:54.882Z,81.50
2019-02-21T12:10:23.408Z,82.30
2019-02-21T12:12:52.002Z,82.27
2019-02-21T12:15:20.544Z,80.35
2019-02-21T12:17:49.073Z,81.25
2019-02-21T12:20:18.635Z,77.25
2019-02-21T12:22:47.500Z,78.28
2019-02-21T12:25:18.623Z,79.85
2019-02-21T12:27:47.152Z,79.00
2019-02-21T12:30:17.517Z,78.62
2019-02-21T12:32:46.266Z,79.37
2019-02-21T12:35:14.785Z,78.07
2019-02-21T12:37:43.383Z,78.65
2019-02-21T12:40:18.028Z,79.07
2019-02-21T12:42:46.589Z,80.83
2019-02-21T12:45:20.088Z,76.42
2019-02-21T12:47:52.912Z,76.45
2019-02-21T12:50:19.095Z,71.57
2019-02-21T12:52:47.624Z,72.40
2019-02-21T12:55:27.260Z,76.22
2019-02-21T12:57:46.332Z,76.72
2019-02-21T13:00:21.766Z,74.47
2019-02-21T13:02:50.302Z,77.55
2019-02-21T13:05:18.809Z,74.07
2019-02-21T13:07:47.725Z,71.70
2019-02-21T13:10:18.578Z,67.35
2019-02-21T13:12:47.114Z,71.00
2019-02-21T13:15:15.980Z,69.72
2019-02-21T13:17:44.570Z,70.05
2019-02-21T13:20:14.323Z,68.30
2019-02-21T13:22:42.933Z,66.80
2019-02-21T13:25:13.385Z,65.10
2019-02-21T13:27:42.360Z,64.75
2019-02-21T13:30:14.130Z,61.70
2019-02-21T13:32:42.978Z,58.45
2019-02-21T13:35:11.593Z,54.98
2019-02-21T13:37:40.107Z,50.75
2019-02-21T13:40:16.270Z,53.48
2019-02-21T13:42:44.794Z,53.10
2019-02-21T13:45:17.560Z,54.08
2019-02-21T13:47:45.778Z,53.25
2019-02-21T13:50:16.568Z,52.58
2019-02-21T13:52:45.110Z,55.17
2019-02-21T13:55:13.655Z,54.75
2019-02-21T13:57:42.237Z,54.50
2019-02-21T14:00:16.778Z,51.65
2019-02-21T14:02:45.322Z,48.10
2019-02-21T14:05:14.297Z,48.15
2019-02-21T14:07:42.808Z,51.60
2019-02-21T14:10:13.061Z,47.73
2019-02-21T14:12:43.783Z,47.53
2019-02-21T14:15:18.491Z,51.98
2019-02-21T14:17:47.095Z,50.60
2019-02-21T14:20:15.669Z,51.85
2019-02-21T14:22:44.204Z,53.13
2019-02-21T14:25:12.812Z,51.77
2019-02-21T14:27:41.422Z,52.15
2019-02-21T14:30:15.542Z,52.00
2019-02-21T14:32:44.353Z,52.80
2019-02-21T14:35:13.724Z,52.60
2019-02-21T14:37:42.365Z,53.70
2019-02-21T14:40:12.210Z,60.30
2019-02-21T14:42:40.748Z,54.65
2019-02-21T14:45:17.587Z,53.30
2019-02-21T14:47:46.101Z,49.80
2019-02-21T14:50:14.697Z,45.17
2019-02-21T14:52:43.590Z,43.98
2019-02-21T14:55:17.656Z,42.15
2019-02-21T14:57:46.199Z,45.10
2019-02-21T15:00:17.702Z,44.88
2019-02-21T15:02:46.680Z,46.42
2019-02-21T15:05:15.198Z,45.28
2019-02-21T15:07:43.756Z,44.95
2019-02-21T15:10:12.278Z,43.90
2019-02-21T15:12:41.105Z,45.85
2019-02-21T15:15:18.621Z,45.15
2019-02-21T15:17:47.116Z,44.93
2019-02-21T15:20:18.417Z,44.38
2019-02-21T15:22:47.050Z,44.53
2019-02-21T15:25:15.665Z,44.18
2019-02-21T15:27:44.616Z,44.65
2019-02-21T15:30:24.600Z,44.60
2019-02-21T15:32:53.160Z,44.65
2019-02-21T15:35:21.665Z,45.20
2019-02-21T15:37:50.535Z,45.35
2019-02-21T15:40:19.049Z,42.27
2019-02-21T15:42:47.666Z,42.25
2019-02-21T15:45:23.610Z,44.00
2019-02-21T15:47:49.256Z,43.48
2019-02-21T15:50:19.913Z,42.03
2019-02-21T15:52:48.203Z,42.40
2019-02-21T15:55:18.978Z,44.03
2019-02-21T15:57:47.627Z,44.85
2019-02-21T16:00:19.001Z,42.17
2019-02-21T16:02:47.510Z,44.27
2019-02-21T16:05:16.397Z,40.05
2019-02-21T16:07:45.070Z,41.77
2019-02-21T16:10:22.295Z,40.55
2019-02-21T16:12:51.319Z,41.05
2019-02-21T16:15:20.378Z,42.25
2019-02-21T16:17:49.071Z,39.70
2019-02-21T16:20:18.858Z,39.58
2019-02-21T16:22:47.373Z,41.33
2019-02-21T16:25:23.833Z,39.75
2019-02-21T16:27:54.961Z,37.13
2019-02-21T16:30:22.581Z,39.27
2019-02-21T16:32:51.554Z,37.60
2019-02-21T16:35:20.245Z,39.05
2019-02-21T16:37:58.769Z,38.58
2019-02-21T16:40:27.502Z,37.40
2019-02-21T16:42:56.039Z,38.28
2019-02-21T16:45:24.648Z,38.42
2019-02-21T16:47:55.459Z,40.40
2019-02-21T16:50:29.884Z,40.52
2019-02-21T16:52:54.329Z,39.42
2019-02-21T16:55:50.574Z,43.35
2019-02-21T16:58:19.241Z,42.15
2019-02-21T17:00:52.680Z,42.95
2019-02-21T17:03:19.249Z,41.18
2019-02-21T17:05:59.174Z,41.48
2019-02-21T17:08:28.406Z,42.00
2019-02-21T17:11:02.758Z,43.02
2019-02-21T17:13:31.432Z,42.13
2019-02-21T17:16:01.561Z,43.33
2019-02-21T17:18:48.599Z,44.65
2019-02-21T17:21:17.262Z,46.15
2019-02-21T17:23:45.792Z,42.25
2019-02-21T17:26:14.878Z,42.70
2019-02-21T17:28:43.696Z,43.48
2019-02-21T17:31:12.272Z,43.83
2019-02-21T17:33:41.199Z,45.10
2019-02-21T17:36:09.767Z,47.67
2019-02-21T17:38:38.425Z,47.90
2019-02-21T17:41:07.013Z,48.25
2019-02-21T17:43:35.550Z,48.78
2019-02-21T17:46:04.054Z,51.58
2019-02-21T17:48:32.583Z,49.38
2019-02-21T17:51:01.141Z,53.28
2019-02-21T17:53:29.683Z,54.63
2019-02-21T17:55:58.238Z,50.88
2019-02-21T17:58:26.790Z,53.13
2019-02-21T18:00:55.343Z,55.10
2019-02-21T18:03:23.870Z,54.80
2019-02-21T18:05:52.388Z,53.15
2019-02-21T18:08:20.997Z,52.33
2019-02-21T18:10:49.577Z,51.92
2019-02-21T18:13:18.085Z,54.03
2019-02-21T18:15:46.658Z,52.10
2019-02-21T18:18:15.228Z,55.92
2019-02-21T18:20:43.746Z,54.80
2019-02-21T18:23:12.571Z,56.35
2019-02-21T18:25:48.634Z,51.33
2019-02-21T18:28:17.337Z,54.48
2019-02-21T18:30:45.872Z,53.90
2019-02-21T18:33:14.382Z,57.03
2019-02-21T18:35:42.957Z,55.88
2019-02-21T18:38:11.469Z,55.30
2019-02-21T18:40:40.027Z,56.95
2019-02-21T18:43:08.559Z,56.58
2019-02-21T18:45:37.091Z,56.70
2019-02-21T18:48:05.617Z,58.10
2019-02-21T18:50:38.228Z,57.15
2019-02-21T18:53:04.322Z,56.58
2019-02-21T18:55:32.864Z,54.75
2019-02-21T18:58:01.363Z,55.43
2019-02-21T19:00:29.975Z,54.60
2019-02-21T19:02:58.503Z,56.10
2019-02-21T19:05:35.395Z,55.30
2019-02-21T19:08:04.754Z,56.33
2019-02-21T19:10:27.784Z,55.90
2019-02-21T19:12:56.289Z,51.55
2019-02-21T19:15:26.016Z,52.80
2019-02-21T19:17:54.711Z,53.60
2019-02-21T19:20:23.199Z,52.33
2019-02-21T19:22:51.752Z,50.65
2019-02-21T19:25:20.275Z,50.75
2019-02-21T19:27:48.921Z,48.63
2019-02-21T19:30:39.055Z,48.87
2019-02-21T19:33:07.596Z,49.25
2019-02-21T19:35:36.168Z,50.40
2019-02-21T19:38:10.546Z,50.17
2019-02-21T19:40:35.138Z,48.28
2019-02-21T19:43:03.638Z,50.60
2019-02-21T19:45:32.308Z,49.90
2019-02-21T19:48:01.016Z,49.93
2019-02-21T19:50:29.896Z,48.58
2019-02-21T19:52:58.471Z,50.43
2019-02-21T19:55:27.170Z,49.23
2019-02-21T19:57:55.698Z,48.63
2019-02-21T20:00:27.789Z,48.52
2019-02-21T20:02:56.381Z,49.77
2019-02-21T20:05:24.873Z,49.77
2019-02-21T20:07:53.492Z,48.23
2019-02-21T20:10:22.128Z,48.73
2019-02-21T20:12:50.703Z,49.23
2019-02-21T20:15:19.344Z,49.93
2019-02-21T20:17:47.977Z,49.20
2019-02-21T20:20:21.138Z,47.73
2019-02-21T20:22:49.620Z,49.38
2019-02-21T20:25:18.182Z,50.10
2019-02-21T20:27:46.689Z,49.35
2019-02-21T20:30:16.926Z,49.50
2019-02-21T20:32:45.573Z,48.92
2019-02-21T20:35:14.067Z,48.60
2019-02-21T20:37:42.603Z,51.00
2019-02-21T20:40:12.049Z,49.73
2019-02-21T20:42:40.603Z,50.45
2019-02-21T20:45:12.105Z,49.58
2019-02-21T20:47:41.059Z,50.67
2019-02-21T20:50:10.935Z,52.95
2019-02-21T20:52:39.432Z,52.03
2019-02-21T20:55:09.216Z,50.38
2019-02-21T20:57:37.854Z,52.90
2019-02-21T21:00:12.384Z,52.95
2019-02-21T21:02:41.055Z,50.58
2019-02-21T21:05:09.562Z,50.35
2019-02-21T21:07:38.088Z,50.67
2019-02-21T21:10:10.898Z,50.45
2019-02-21T21:12:39.474Z,49.93
2019-02-21T21:15:09.823Z,50.10
2019-02-21T21:17:38.434Z,50.05
2019-02-21T21:20:16.518Z,52.10
2019-02-21T21:22:39.666Z,52.30
2019-02-21T21:25:11.403Z,50.78
2019-02-21T21:27:39.982Z,52.73
2019-02-21T21:30:10.779Z,52.05
2019-02-21T21:32:39.267Z,52.38
2019-02-21T21:35:07.909Z,51.35
2019-02-21T21:37:36.487Z,51.65
2019-02-21T21:40:08.480Z,51.60
2019-02-21T21:42:37.163Z,50.58
2019-02-21T21:45:08.930Z,52.13
2019-02-21T21:47:37.486Z,52.95
2019-02-21T21:50:08.696Z,53.20
2019-02-21T21:52:37.283Z,53.33
2019-02-21T21:55:05.785Z,47.65
2019-02-21T21:57:34.473Z,51.68
2019-02-21T22:00:04.362Z,51.45
2019-02-21T22:02:32.873Z,51.00
2019-02-21T22:05:01.404Z,51.08
2019-02-21T22:07:29.912Z,51.25
2019-02-21T22:09:58.468Z,53.52
2019-02-21T22:12:26.963Z,58.20
2019-02-21T22:14:55.466Z,54.33
2019-02-21T22:17:24.080Z,51.30
2019-02-21T22:19:52.570Z,52.65
2019-02-21T22:22:21.099Z,54.60
2019-02-21T22:24:49.613Z,54.60
2019-02-21T22:27:18.173Z,52.23
2019-02-21T22:29:46.718Z,52.53
2019-02-21T22:32:15.275Z,51.83
2019-02-21T22:34:43.879Z,47.93
2019-02-21T22:37:12.367Z,50.75
2019-02-21T22:39:40.886Z,52.70
2019-02-21T22:42:09.460Z,53.13
2019-02-21T22:44:38.058Z,50.80
2019-02-21T22:47:06.573Z,54.88
2019-02-21T22:49:35.076Z,54.03
2019-02-21T22:52:03.586Z,52.38
2019-02-21T22:54:32.099Z,49.70
2019-02-21T22:57:00.701Z,54.30
2019-02-21T22:59:29.208Z,53.17
2019-02-21T23:01:58.848Z,53.28
2019-02-21T23:04:30.567Z,52.67
2019-02-21T23:07:11.338Z,53.55
2019-02-21T23:09:39.837Z,52.00
2019-02-21T23:12:08.460Z,58.92
2019-02-21T23:14:36.956Z,53.92
2019-02-21T23:17:06.053Z,52.95
2019-02-21T23:19:34.637Z,49.20
2019-02-21T23:22:03.154Z,51.13
2019-02-21T23:24:31.670Z,51.60
2019-02-21T23:27:00.197Z,51.88
2019-02-21T23:29:28.691Z,49.45
2019-02-21T23:31:57.301Z,49.98
2019-02-21T23:34:30.122Z,50.00
2019-02-21T23:36:58.706Z,49.33
2019-02-21T23:39:37.551Z,49.73
2019-02-21T23:41:57.446Z,50.63
2019-02-21T23:44:26.008Z,47.75
2019-02-21T23:46:54.601Z,49.03
2019-02-21T23:49:23.202Z,49.60
2019-02-21T23:51:51.704Z,49.10
2019-02-21T23:54:20.267Z,51.40
2019-02-21T23:56:48.770Z,51.35
2019-02-21T23:59:17.450Z,50.23
